sensor_id;sensor_type;location;lat;lon;timestamp;temperature;humidity
4530;DHT22;2277;51.626;7.516;2022-07-22T00:00:15;19.60;99.90
4530;DHT22;2277;51.626;7.516;2022-07-22T00:02:41;19.70;99.90
4530;DHT22;2277;51.626;7.516;2022-07-22T00:05:07;19.60;99.90
4530;DHT22;2277;51.626;7.516;2022-07-22T00:07:33;19.60;99.90
4530;DHT22;2277;51.626;7.516;2022-07-22T00:09:59;19.60;99.90
4530;DHT22;2277;51.626;7.516;2022-07-22T00:12:24;19.60;99.90
4530;DHT22;2277;51.626;7.516;2022-07-22T00:14:50;19.60;99.90
4530;DHT22;2277;51.626;7.516;2022-07-22T00:17:16;19.60;99.90
4530;DHT22;2277;51.626;7.516;2022-07-22T00:19:42;19.60;99.90
4530;DHT22;2277;51.626;7.516;2022-07-22T00:22:07;19.60;99.90
4530;DHT22;2277;51.626;7.516;2022-07-22T00:24:33;19.70;99.90
4530;DHT22;2277;51.626;7.516;2022-07-22T00:26:59;19.60;99.90
4530;DHT22;2277;51.626;7.516;2022-07-22T00:29:24;19.60;99.90
4530;DHT22;2277;51.626;7.516;2022-07-22T00:31:50;19.60;99.90
4530;DHT22;2277;51.626;7.516;2022-07-22T00:34:16;19.70;99.90
4530;DHT22;2277;51.626;7.516;2022-07-22T00:36:41;19.70;99.90
4530;DHT22;2277;51.626;7.516;2022-07-22T00:39:07;19.70;99.90
4530;DHT22;2277;51.626;7.516;2022-07-22T00:41:33;19.70;99.90
4530;DHT22;2277;51.626;7.516;2022-07-22T00:44:01;19.70;99.90
4530;DHT22;2277;51.626;7.516;2022-07-22T00:46:28;19.70;99.90
4530;DHT22;2277;51.626;7.516;2022-07-22T00:48:56;19.70;99.90
4530;DHT22;2277;51.626;7.516;2022-07-22T00:51:23;19.70;99.90
4530;DHT22;2277;51.626;7.516;2022-07-22T00:53:50;19.70;99.90
4530;DHT22;2277;51.626;7.516;2022-07-22T00:56:18;19.70;99.90
4530;DHT22;2277;51.626;7.516;2022-07-22T00:58:45;19.70;99.90
4530;DHT22;2277;51.626;7.516;2022-07-22T01:01:11;19.60;99.90
4530;DHT22;2277;51.626;7.516;2022-07-22T01:03:36;19.60;99.90
4530;DHT22;2277;51.626;7.516;2022-07-22T01:06:03;19.60;99.90
4530;DHT22;2277;51.626;7.516;2022-07-22T01:08:29;19.60;99.90
4530;DHT22;2277;51.626;7.516;2022-07-22T01:11:06;19.60;99.90
4530;DHT22;2277;51.626;7.516;2022-07-22T01:13:32;19.60;99.90
4530;DHT22;2277;51.626;7.516;2022-07-22T01:15:57;19.60;99.90
4530;DHT22;2277;51.626;7.516;2022-07-22T01:18:23;19.50;99.90
4530;DHT22;2277;51.626;7.516;2022-07-22T01:20:48;19.50;99.90
4530;DHT22;2277;51.626;7.516;2022-07-22T01:23:14;19.40;99.90
4530;DHT22;2277;51.626;7.516;2022-07-22T01:25:39;19.40;99.90
4530;DHT22;2277;51.626;7.516;2022-07-22T01:28:05;19.30;99.90
4530;DHT22;2277;51.626;7.516;2022-07-22T01:30:31;19.30;99.90
4530;DHT22;2277;51.626;7.516;2022-07-22T01:32:56;19.30;99.90
4530;DHT22;2277;51.626;7.516;2022-07-22T01:35:22;19.30;99.90
4530;DHT22;2277;51.626;7.516;2022-07-22T01:37:48;19.30;99.90
4530;DHT22;2277;51.626;7.516;2022-07-22T01:40:13;19.40;99.90
4530;DHT22;2277;51.626;7.516;2022-07-22T01:42:39;19.40;99.90
4530;DHT22;2277;51.626;7.516;2022-07-22T01:45:05;19.30;99.90
4530;DHT22;2277;51.626;7.516;2022-07-22T01:47:31;19.30;99.90
4530;DHT22;2277;51.626;7.516;2022-07-22T01:49:56;19.30;99.90
4530;DHT22;2277;51.626;7.516;2022-07-22T01:52:22;19.30;99.90
4530;DHT22;2277;51.626;7.516;2022-07-22T01:54:48;19.30;99.90
4530;DHT22;2277;51.626;7.516;2022-07-22T01:57:13;19.30;99.90
4530;DHT22;2277;51.626;7.516;2022-07-22T01:59:39;19.30;99.90
4530;DHT22;2277;51.626;7.516;2022-07-22T02:02:04;19.30;99.90
4530;DHT22;2277;51.626;7.516;2022-07-22T02:04:30;19.40;99.90
4530;DHT22;2277;51.626;7.516;2022-07-22T02:06:56;19.30;99.90
4530;DHT22;2277;51.626;7.516;2022-07-22T02:09:21;19.30;99.90
4530;DHT22;2277;51.626;7.516;2022-07-22T02:11:47;19.30;99.90
4530;DHT22;2277;51.626;7.516;2022-07-22T02:14:12;19.30;99.90
4530;DHT22;2277;51.626;7.516;2022-07-22T02:16:38;19.30;99.90
4530;DHT22;2277;51.626;7.516;2022-07-22T02:19:04;19.30;99.90
4530;DHT22;2277;51.626;7.516;2022-07-22T02:21:29;19.30;99.90
4530;DHT22;2277;51.626;7.516;2022-07-22T02:23:55;19.30;99.90
4530;DHT22;2277;51.626;7.516;2022-07-22T02:26:21;19.30;99.90
4530;DHT22;2277;51.626;7.516;2022-07-22T02:28:46;19.30;99.90
4530;DHT22;2277;51.626;7.516;2022-07-22T02:31:12;19.30;99.90
4530;DHT22;2277;51.626;7.516;2022-07-22T02:33:38;19.40;99.90
4530;DHT22;2277;51.626;7.516;2022-07-22T02:36:04;19.40;99.90
4530;DHT22;2277;51.626;7.516;2022-07-22T02:38:29;19.40;99.90
4530;DHT22;2277;51.626;7.516;2022-07-22T02:40:55;19.30;99.90
4530;DHT22;2277;51.626;7.516;2022-07-22T02:43:21;19.30;99.90
4530;DHT22;2277;51.626;7.516;2022-07-22T02:45:46;19.30;99.90
4530;DHT22;2277;51.626;7.516;2022-07-22T02:48:12;19.30;99.90
4530;DHT22;2277;51.626;7.516;2022-07-22T02:50:37;19.20;99.90
4530;DHT22;2277;51.626;7.516;2022-07-22T02:53:04;19.20;99.90
4530;DHT22;2277;51.626;7.516;2022-07-22T02:55:30;19.20;99.90
4530;DHT22;2277;51.626;7.516;2022-07-22T02:57:55;19.20;99.90
4530;DHT22;2277;51.626;7.516;2022-07-22T03:00:21;19.20;99.90
4530;DHT22;2277;51.626;7.516;2022-07-22T03:02:47;19.20;99.90
4530;DHT22;2277;51.626;7.516;2022-07-22T03:05:12;19.20;99.90
4530;DHT22;2277;51.626;7.516;2022-07-22T03:07:38;19.10;99.90
4530;DHT22;2277;51.626;7.516;2022-07-22T03:10:04;19.10;99.90
4530;DHT22;2277;51.626;7.516;2022-07-22T03:12:30;19.10;99.90
4530;DHT22;2277;51.626;7.516;2022-07-22T03:14:56;19.10;99.90
4530;DHT22;2277;51.626;7.516;2022-07-22T03:17:21;19.10;99.90
4530;DHT22;2277;51.626;7.516;2022-07-22T03:19:47;19.10;99.90
4530;DHT22;2277;51.626;7.516;2022-07-22T03:22:13;19.10;99.90
4530;DHT22;2277;51.626;7.516;2022-07-22T03:24:38;19.20;99.90
4530;DHT22;2277;51.626;7.516;2022-07-22T03:27:04;19.20;99.90
4530;DHT22;2277;51.626;7.516;2022-07-22T03:29:30;19.20;99.90
4530;DHT22;2277;51.626;7.516;2022-07-22T03:31:56;19.20;99.90
4530;DHT22;2277;51.626;7.516;2022-07-22T03:34:21;19.20;99.90
4530;DHT22;2277;51.626;7.516;2022-07-22T03:36:47;19.20;99.90
4530;DHT22;2277;51.626;7.516;2022-07-22T03:39:13;19.20;99.90
4530;DHT22;2277;51.626;7.516;2022-07-22T03:41:38;19.10;99.90
4530;DHT22;2277;51.626;7.516;2022-07-22T03:44:04;19.20;99.90
4530;DHT22;2277;51.626;7.516;2022-07-22T03:46:29;19.10;99.90
4530;DHT22;2277;51.626;7.516;2022-07-22T03:48:55;19.10;99.90
4530;DHT22;2277;51.626;7.516;2022-07-22T03:51:20;19.20;99.90
4530;DHT22;2277;51.626;7.516;2022-07-22T03:53:46;19.20;99.90
4530;DHT22;2277;51.626;7.516;2022-07-22T03:56:12;19.20;99.90
4530;DHT22;2277;51.626;7.516;2022-07-22T03:58:37;19.20;99.90
4530;DHT22;2277;51.626;7.516;2022-07-22T04:01:03;19.20;99.90
4530;DHT22;2277;51.626;7.516;2022-07-22T04:03:29;19.20;99.90
4530;DHT22;2277;51.626;7.516;2022-07-22T04:05:54;19.20;99.90
4530;DHT22;2277;51.626;7.516;2022-07-22T04:08:20;19.20;99.90
4530;DHT22;2277;51.626;7.516;2022-07-22T04:10:45;19.20;99.90
4530;DHT22;2277;51.626;7.516;2022-07-22T04:13:11;19.20;99.90
4530;DHT22;2277;51.626;7.516;2022-07-22T04:15:37;19.20;99.90
4530;DHT22;2277;51.626;7.516;2022-07-22T04:18:02;19.20;99.90
4530;DHT22;2277;51.626;7.516;2022-07-22T04:20:28;19.20;99.90
4530;DHT22;2277;51.626;7.516;2022-07-22T04:22:53;19.20;99.90
4530;DHT22;2277;51.626;7.516;2022-07-22T04:25:19;19.20;99.90
4530;DHT22;2277;51.626;7.516;2022-07-22T04:27:45;19.20;99.90
4530;DHT22;2277;51.626;7.516;2022-07-22T04:30:11;19.20;99.90
4530;DHT22;2277;51.626;7.516;2022-07-22T04:32:36;19.10;99.90
4530;DHT22;2277;51.626;7.516;2022-07-22T04:35:03;19.20;99.90
4530;DHT22;2277;51.626;7.516;2022-07-22T04:37:30;19.20;99.90
4530;DHT22;2277;51.626;7.516;2022-07-22T04:39:55;19.20;99.90
4530;DHT22;2277;51.626;7.516;2022-07-22T04:42:21;19.20;99.90
4530;DHT22;2277;51.626;7.516;2022-07-22T04:44:46;19.20;99.90
4530;DHT22;2277;51.626;7.516;2022-07-22T04:47:12;19.20;99.90
4530;DHT22;2277;51.626;7.516;2022-07-22T04:49:38;19.20;99.90
4530;DHT22;2277;51.626;7.516;2022-07-22T04:52:04;19.10;99.90
4530;DHT22;2277;51.626;7.516;2022-07-22T04:54:29;19.20;99.90
4530;DHT22;2277;51.626;7.516;2022-07-22T04:56:55;19.20;99.90
4530;DHT22;2277;51.626;7.516;2022-07-22T04:59:21;19.20;99.90
4530;DHT22;2277;51.626;7.516;2022-07-22T05:01:46;19.20;99.90
4530;DHT22;2277;51.626;7.516;2022-07-22T05:04:12;19.20;99.90
4530;DHT22;2277;51.626;7.516;2022-07-22T05:06:37;19.10;99.90
4530;DHT22;2277;51.626;7.516;2022-07-22T05:09:03;19.10;99.90
4530;DHT22;2277;51.626;7.516;2022-07-22T05:11:29;19.10;99.90
4530;DHT22;2277;51.626;7.516;2022-07-22T05:13:54;19.20;99.90
4530;DHT22;2277;51.626;7.516;2022-07-22T05:16:20;19.20;99.90
4530;DHT22;2277;51.626;7.516;2022-07-22T05:18:46;19.20;99.90
4530;DHT22;2277;51.626;7.516;2022-07-22T05:21:11;19.20;99.90
4530;DHT22;2277;51.626;7.516;2022-07-22T05:23:37;19.10;99.90
4530;DHT22;2277;51.626;7.516;2022-07-22T05:26:04;19.10;99.90
4530;DHT22;2277;51.626;7.516;2022-07-22T05:28:30;19.10;99.90
4530;DHT22;2277;51.626;7.516;2022-07-22T05:30:56;19.10;99.90
4530;DHT22;2277;51.626;7.516;2022-07-22T05:33:22;19.10;99.90
4530;DHT22;2277;51.626;7.516;2022-07-22T05:35:47;19.00;99.90
4530;DHT22;2277;51.626;7.516;2022-07-22T05:38:13;19.00;99.90
4530;DHT22;2277;51.626;7.516;2022-07-22T05:40:39;19.00;99.90
4530;DHT22;2277;51.626;7.516;2022-07-22T05:43:04;18.90;99.90
4530;DHT22;2277;51.626;7.516;2022-07-22T05:45:30;18.90;99.90
4530;DHT22;2277;51.626;7.516;2022-07-22T05:47:56;19.00;99.90
4530;DHT22;2277;51.626;7.516;2022-07-22T05:50:21;19.00;99.90
4530;DHT22;2277;51.626;7.516;2022-07-22T05:52:47;19.00;99.90
4530;DHT22;2277;51.626;7.516;2022-07-22T05:55:12;19.00;99.90
4530;DHT22;2277;51.626;7.516;2022-07-22T05:57:38;19.00;99.90
4530;DHT22;2277;51.626;7.516;2022-07-22T06:00:05;19.00;99.90
4530;DHT22;2277;51.626;7.516;2022-07-22T06:02:31;19.00;99.90
4530;DHT22;2277;51.626;7.516;2022-07-22T06:04:57;19.00;99.90
4530;DHT22;2277;51.626;7.516;2022-07-22T06:07:22;19.10;99.90
4530;DHT22;2277;51.626;7.516;2022-07-22T06:09:48;19.10;99.90
4530;DHT22;2277;51.626;7.516;2022-07-22T06:12:14;19.20;99.90
4530;DHT22;2277;51.626;7.516;2022-07-22T06:14:40;19.20;99.90
4530;DHT22;2277;51.626;7.516;2022-07-22T06:17:05;19.20;99.90
4530;DHT22;2277;51.626;7.516;2022-07-22T06:19:31;19.20;99.90
4530;DHT22;2277;51.626;7.516;2022-07-22T06:21:57;19.20;99.90
4530;DHT22;2277;51.626;7.516;2022-07-22T06:24:23;19.20;99.90
4530;DHT22;2277;51.626;7.516;2022-07-22T06:26:49;19.30;99.90
4530;DHT22;2277;51.626;7.516;2022-07-22T06:29:14;19.40;99.90
4530;DHT22;2277;51.626;7.516;2022-07-22T06:31:40;19.40;99.90
4530;DHT22;2277;51.626;7.516;2022-07-22T06:34:06;19.40;99.90
4530;DHT22;2277;51.626;7.516;2022-07-22T06:36:32;19.40;99.90
4530;DHT22;2277;51.626;7.516;2022-07-22T06:38:58;19.50;99.90
4530;DHT22;2277;51.626;7.516;2022-07-22T06:41:24;19.50;99.90
4530;DHT22;2277;51.626;7.516;2022-07-22T06:43:50;19.60;99.90
4530;DHT22;2277;51.626;7.516;2022-07-22T06:46:15;19.60;99.90
4530;DHT22;2277;51.626;7.516;2022-07-22T06:48:41;19.60;99.90
4530;DHT22;2277;51.626;7.516;2022-07-22T06:51:07;19.70;99.90
4530;DHT22;2277;51.626;7.516;2022-07-22T06:53:33;19.70;99.90
4530;DHT22;2277;51.626;7.516;2022-07-22T06:55:59;19.70;99.90
4530;DHT22;2277;51.626;7.516;2022-07-22T06:58:25;19.70;99.90
4530;DHT22;2277;51.626;7.516;2022-07-22T07:00:50;19.80;99.90
4530;DHT22;2277;51.626;7.516;2022-07-22T07:03:16;19.80;99.90
4530;DHT22;2277;51.626;7.516;2022-07-22T07:05:42;19.80;99.90
4530;DHT22;2277;51.626;7.516;2022-07-22T07:08:07;19.80;99.90
4530;DHT22;2277;51.626;7.516;2022-07-22T07:10:33;20.00;99.90
4530;DHT22;2277;51.626;7.516;2022-07-22T07:12:59;20.00;99.90
4530;DHT22;2277;51.626;7.516;2022-07-22T07:15:25;20.10;99.90
4530;DHT22;2277;51.626;7.516;2022-07-22T07:17:52;20.00;99.90
4530;DHT22;2277;51.626;7.516;2022-07-22T07:20:17;20.10;99.90
4530;DHT22;2277;51.626;7.516;2022-07-22T07:22:43;20.10;99.90
4530;DHT22;2277;51.626;7.516;2022-07-22T07:25:09;20.10;99.90
4530;DHT22;2277;51.626;7.516;2022-07-22T07:27:35;20.10;99.90
4530;DHT22;2277;51.626;7.516;2022-07-22T07:30:03;20.10;99.90
4530;DHT22;2277;51.626;7.516;2022-07-22T07:32:29;20.10;99.90
4530;DHT22;2277;51.626;7.516;2022-07-22T07:34:54;20.10;99.90
4530;DHT22;2277;51.626;7.516;2022-07-22T07:37:20;20.10;99.90
4530;DHT22;2277;51.626;7.516;2022-07-22T07:39:45;20.10;99.90
4530;DHT22;2277;51.626;7.516;2022-07-22T07:42:11;20.10;99.90
4530;DHT22;2277;51.626;7.516;2022-07-22T07:44:36;20.20;99.90
4530;DHT22;2277;51.626;7.516;2022-07-22T07:47:02;20.20;99.90
4530;DHT22;2277;51.626;7.516;2022-07-22T07:49:28;20.20;99.90
4530;DHT22;2277;51.626;7.516;2022-07-22T07:51:54;20.20;99.90
4530;DHT22;2277;51.626;7.516;2022-07-22T07:54:20;20.30;99.90
4530;DHT22;2277;51.626;7.516;2022-07-22T07:56:46;20.20;99.90
4530;DHT22;2277;51.626;7.516;2022-07-22T07:59:12;20.30;99.90
4530;DHT22;2277;51.626;7.516;2022-07-22T08:01:38;20.30;99.90
4530;DHT22;2277;51.626;7.516;2022-07-22T08:04:03;20.30;99.90
4530;DHT22;2277;51.626;7.516;2022-07-22T08:06:29;20.30;99.90
4530;DHT22;2277;51.626;7.516;2022-07-22T08:08:55;20.40;99.90
4530;DHT22;2277;51.626;7.516;2022-07-22T08:11:20;20.30;99.90
4530;DHT22;2277;51.626;7.516;2022-07-22T08:13:46;20.40;99.90
4530;DHT22;2277;51.626;7.516;2022-07-22T08:16:12;20.40;99.90
4530;DHT22;2277;51.626;7.516;2022-07-22T08:18:38;20.40;99.90
4530;DHT22;2277;51.626;7.516;2022-07-22T08:21:03;20.40;99.90
4530;DHT22;2277;51.626;7.516;2022-07-22T08:23:29;20.50;99.90
4530;DHT22;2277;51.626;7.516;2022-07-22T08:25:55;20.50;99.90
4530;DHT22;2277;51.626;7.516;2022-07-22T08:28:20;20.60;99.90
4530;DHT22;2277;51.626;7.516;2022-07-22T08:30:46;20.60;99.90
4530;DHT22;2277;51.626;7.516;2022-07-22T08:33:12;20.60;99.90
4530;DHT22;2277;51.626;7.516;2022-07-22T08:35:38;20.60;99.90
4530;DHT22;2277;51.626;7.516;2022-07-22T08:38:03;20.60;99.90
4530;DHT22;2277;51.626;7.516;2022-07-22T08:40:29;20.60;99.90
4530;DHT22;2277;51.626;7.516;2022-07-22T08:42:55;20.60;99.90
4530;DHT22;2277;51.626;7.516;2022-07-22T08:45:21;20.60;99.90
4530;DHT22;2277;51.626;7.516;2022-07-22T08:47:49;20.70;99.90
4530;DHT22;2277;51.626;7.516;2022-07-22T08:50:16;20.70;99.90
4530;DHT22;2277;51.626;7.516;2022-07-22T08:52:41;20.70;99.90
4530;DHT22;2277;51.626;7.516;2022-07-22T08:55:08;20.70;99.90
4530;DHT22;2277;51.626;7.516;2022-07-22T08:57:34;20.70;99.90
4530;DHT22;2277;51.626;7.516;2022-07-22T09:00:13;20.70;99.90
4530;DHT22;2277;51.626;7.516;2022-07-22T09:02:40;20.60;99.90
4530;DHT22;2277;51.626;7.516;2022-07-22T09:05:08;20.70;99.90
4530;DHT22;2277;51.626;7.516;2022-07-22T09:07:39;20.70;99.90
4530;DHT22;2277;51.626;7.516;2022-07-22T09:10:09;20.60;99.90
4530;DHT22;2277;51.626;7.516;2022-07-22T09:12:53;20.60;99.90
4530;DHT22;2277;51.626;7.516;2022-07-22T09:15:32;20.60;99.90
4530;DHT22;2277;51.626;7.516;2022-07-22T09:17:58;20.60;99.90
4530;DHT22;2277;51.626;7.516;2022-07-22T09:20:25;20.60;99.90
4530;DHT22;2277;51.626;7.516;2022-07-22T09:22:51;20.60;99.90
4530;DHT22;2277;51.626;7.516;2022-07-22T09:25:35;20.70;99.90
4530;DHT22;2277;51.626;7.516;2022-07-22T09:30:40;20.80;99.90
4530;DHT22;2277;51.626;7.516;2022-07-22T09:33:08;20.80;99.90
4530;DHT22;2277;51.626;7.516;2022-07-22T09:35:34;20.80;99.90
4530;DHT22;2277;51.626;7.516;2022-07-22T09:38:02;20.90;99.90
4530;DHT22;2277;51.626;7.516;2022-07-22T09:40:34;20.90;99.90
4530;DHT22;2277;51.626;7.516;2022-07-22T09:43:05;20.90;99.90
4530;DHT22;2277;51.626;7.516;2022-07-22T09:45:32;21.00;99.90
4530;DHT22;2277;51.626;7.516;2022-07-22T09:48:00;21.00;99.90
4530;DHT22;2277;51.626;7.516;2022-07-22T09:50:28;21.00;99.90
4530;DHT22;2277;51.626;7.516;2022-07-22T09:52:56;21.10;99.90
4530;DHT22;2277;51.626;7.516;2022-07-22T09:55:23;21.10;99.90
4530;DHT22;2277;51.626;7.516;2022-07-22T09:57:50;21.20;99.90
4530;DHT22;2277;51.626;7.516;2022-07-22T10:00:19;21.20;99.90
4530;DHT22;2277;51.626;7.516;2022-07-22T10:02:47;21.20;99.90
4530;DHT22;2277;51.626;7.516;2022-07-22T10:05:15;21.20;99.90
4530;DHT22;2277;51.626;7.516;2022-07-22T10:07:41;21.30;99.90
4530;DHT22;2277;51.626;7.516;2022-07-22T10:10:09;21.30;99.90
4530;DHT22;2277;51.626;7.516;2022-07-22T10:12:36;21.30;99.90
4530;DHT22;2277;51.626;7.516;2022-07-22T10:15:02;21.30;99.90
4530;DHT22;2277;51.626;7.516;2022-07-22T10:17:28;21.40;99.90
4530;DHT22;2277;51.626;7.516;2022-07-22T10:19:55;21.40;99.90
4530;DHT22;2277;51.626;7.516;2022-07-22T10:22:51;21.50;99.90
4530;DHT22;2277;51.626;7.516;2022-07-22T10:25:18;21.60;99.90
4530;DHT22;2277;51.626;7.516;2022-07-22T10:28:04;21.50;99.90
4530;DHT22;2277;51.626;7.516;2022-07-22T10:30:39;21.50;99.90
4530;DHT22;2277;51.626;7.516;2022-07-22T10:33:11;21.40;99.90
4530;DHT22;2277;51.626;7.516;2022-07-22T10:38:11;21.60;99.90
4530;DHT22;2277;51.626;7.516;2022-07-22T10:40:56;21.50;99.90
4530;DHT22;2277;51.626;7.516;2022-07-22T10:43:45;21.50;99.90
4530;DHT22;2277;51.626;7.516;2022-07-22T10:46:11;21.60;99.90
4530;DHT22;2277;51.626;7.516;2022-07-22T10:51:16;21.60;99.90
4530;DHT22;2277;51.626;7.516;2022-07-22T10:54:01;21.60;99.90
4530;DHT22;2277;51.626;7.516;2022-07-22T10:56:29;21.60;99.90
4530;DHT22;2277;51.626;7.516;2022-07-22T10:59:13;21.60;99.90
4530;DHT22;2277;51.626;7.516;2022-07-22T11:01:41;21.50;99.90
4530;DHT22;2277;51.626;7.516;2022-07-22T11:04:28;21.50;99.90
4530;DHT22;2277;51.626;7.516;2022-07-22T11:06:56;21.60;99.90
4530;DHT22;2277;51.626;7.516;2022-07-22T11:09:30;21.60;99.90
4530;DHT22;2277;51.626;7.516;2022-07-22T11:11:56;21.70;99.90
4530;DHT22;2277;51.626;7.516;2022-07-22T11:14:29;21.80;99.90
4530;DHT22;2277;51.626;7.516;2022-07-22T11:17:04;21.80;99.90
4530;DHT22;2277;51.626;7.516;2022-07-22T11:19:31;21.80;99.90
4530;DHT22;2277;51.626;7.516;2022-07-22T11:22:12;21.70;99.90
4530;DHT22;2277;51.626;7.516;2022-07-22T11:24:40;21.80;99.90
4530;DHT22;2277;51.626;7.516;2022-07-22T11:27:17;21.80;99.90
4530;DHT22;2277;51.626;7.516;2022-07-22T11:29:47;21.80;99.90
4530;DHT22;2277;51.626;7.516;2022-07-22T11:32:14;21.80;99.90
4530;DHT22;2277;51.626;7.516;2022-07-22T11:34:42;21.80;99.90
4530;DHT22;2277;51.626;7.516;2022-07-22T11:37:11;22.00;99.90
4530;DHT22;2277;51.626;7.516;2022-07-22T11:39:37;22.10;99.90
4530;DHT22;2277;51.626;7.516;2022-07-22T11:42:03;22.20;99.90
4530;DHT22;2277;51.626;7.516;2022-07-22T11:44:31;22.20;99.90
4530;DHT22;2277;51.626;7.516;2022-07-22T11:46:58;22.20;99.90
4530;DHT22;2277;51.626;7.516;2022-07-22T11:49:25;22.20;99.90
4530;DHT22;2277;51.626;7.516;2022-07-22T11:51:52;22.30;99.90
4530;DHT22;2277;51.626;7.516;2022-07-22T11:54:18;22.20;99.90
4530;DHT22;2277;51.626;7.516;2022-07-22T11:56:44;22.20;99.90
4530;DHT22;2277;51.626;7.516;2022-07-22T11:59:13;22.20;99.90
4530;DHT22;2277;51.626;7.516;2022-07-22T12:01:40;22.30;99.90
4530;DHT22;2277;51.626;7.516;2022-07-22T12:04:13;22.40;99.90
4530;DHT22;2277;51.626;7.516;2022-07-22T12:06:42;22.40;99.90
4530;DHT22;2277;51.626;7.516;2022-07-22T12:09:09;22.30;99.90
4530;DHT22;2277;51.626;7.516;2022-07-22T12:11:37;22.40;99.90
4530;DHT22;2277;51.626;7.516;2022-07-22T12:14:13;22.40;99.90
4530;DHT22;2277;51.626;7.516;2022-07-22T12:16:40;22.40;99.90
4530;DHT22;2277;51.626;7.516;2022-07-22T12:19:08;22.40;99.90
4530;DHT22;2277;51.626;7.516;2022-07-22T12:21:55;22.40;99.90
4530;DHT22;2277;51.626;7.516;2022-07-22T12:24:34;22.40;99.90
4530;DHT22;2277;51.626;7.516;2022-07-22T12:29:41;22.40;99.90
4530;DHT22;2277;51.626;7.516;2022-07-22T12:40:07;22.30;99.90
4530;DHT22;2277;51.626;7.516;2022-07-22T12:42:44;22.40;99.90
4530;DHT22;2277;51.626;7.516;2022-07-22T12:45:12;22.40;99.90
4530;DHT22;2277;51.626;7.516;2022-07-22T12:53:06;22.50;99.90
4530;DHT22;2277;51.626;7.516;2022-07-22T12:55:34;22.60;99.90
4530;DHT22;2277;51.626;7.516;2022-07-22T12:58:01;22.60;99.90
4530;DHT22;2277;51.626;7.516;2022-07-22T13:00:30;22.60;99.90
4530;DHT22;2277;51.626;7.516;2022-07-22T13:02:56;22.70;99.90
4530;DHT22;2277;51.626;7.516;2022-07-22T13:05:23;22.70;99.90
4530;DHT22;2277;51.626;7.516;2022-07-22T13:07:49;22.70;99.90
4530;DHT22;2277;51.626;7.516;2022-07-22T13:10:15;22.80;99.90
4530;DHT22;2277;51.626;7.516;2022-07-22T13:12:42;22.90;99.90
4530;DHT22;2277;51.626;7.516;2022-07-22T13:15:08;23.00;99.90
4530;DHT22;2277;51.626;7.516;2022-07-22T13:17:34;23.00;99.90
4530;DHT22;2277;51.626;7.516;2022-07-22T13:20:01;23.20;99.90
4530;DHT22;2277;51.626;7.516;2022-07-22T13:22:27;23.30;99.90
4530;DHT22;2277;51.626;7.516;2022-07-22T13:24:53;23.50;99.90
4530;DHT22;2277;51.626;7.516;2022-07-22T13:27:19;23.60;99.90
4530;DHT22;2277;51.626;7.516;2022-07-22T13:29:45;23.80;99.90
4530;DHT22;2277;51.626;7.516;2022-07-22T13:32:10;24.00;99.90
4530;DHT22;2277;51.626;7.516;2022-07-22T13:34:36;24.10;99.90
4530;DHT22;2277;51.626;7.516;2022-07-22T13:37:01;24.10;99.90
4530;DHT22;2277;51.626;7.516;2022-07-22T13:39:27;24.30;99.90
4530;DHT22;2277;51.626;7.516;2022-07-22T13:41:53;24.40;99.90
4530;DHT22;2277;51.626;7.516;2022-07-22T13:44:19;24.20;99.90
4530;DHT22;2277;51.626;7.516;2022-07-22T13:46:44;24.00;99.90
4530;DHT22;2277;51.626;7.516;2022-07-22T13:49:11;24.30;99.90
4530;DHT22;2277;51.626;7.516;2022-07-22T13:51:36;24.60;99.90
4530;DHT22;2277;51.626;7.516;2022-07-22T13:54:02;24.70;99.90
4530;DHT22;2277;51.626;7.516;2022-07-22T13:56:28;24.90;99.90
4530;DHT22;2277;51.626;7.516;2022-07-22T13:58:53;25.00;99.90
4530;DHT22;2277;51.626;7.516;2022-07-22T14:01:19;25.30;99.90
4530;DHT22;2277;51.626;7.516;2022-07-22T14:03:45;25.50;99.90
4530;DHT22;2277;51.626;7.516;2022-07-22T14:06:10;25.60;99.90
4530;DHT22;2277;51.626;7.516;2022-07-22T14:08:36;25.70;99.90
4530;DHT22;2277;51.626;7.516;2022-07-22T14:11:02;25.90;99.90
4530;DHT22;2277;51.626;7.516;2022-07-22T14:13:28;25.90;99.90
4530;DHT22;2277;51.626;7.516;2022-07-22T14:15:54;26.00;99.90
4530;DHT22;2277;51.626;7.516;2022-07-22T14:18:20;26.00;99.90
4530;DHT22;2277;51.626;7.516;2022-07-22T14:20:45;26.10;99.90
4530;DHT22;2277;51.626;7.516;2022-07-22T14:23:11;26.10;99.90
4530;DHT22;2277;51.626;7.516;2022-07-22T14:25:39;26.20;99.90
4530;DHT22;2277;51.626;7.516;2022-07-22T14:28:06;26.20;99.90
4530;DHT22;2277;51.626;7.516;2022-07-22T14:30:32;26.20;99.90
4530;DHT22;2277;51.626;7.516;2022-07-22T14:32:59;26.20;99.90
4530;DHT22;2277;51.626;7.516;2022-07-22T14:35:25;26.20;99.90
4530;DHT22;2277;51.626;7.516;2022-07-22T14:37:50;26.20;99.90
4530;DHT22;2277;51.626;7.516;2022-07-22T14:40:16;26.30;99.90
4530;DHT22;2277;51.626;7.516;2022-07-22T14:42:42;26.40;99.90
4530;DHT22;2277;51.626;7.516;2022-07-22T14:45:08;26.40;99.90
4530;DHT22;2277;51.626;7.516;2022-07-22T14:47:36;26.50;99.90
4530;DHT22;2277;51.626;7.516;2022-07-22T14:50:03;26.50;99.90
4530;DHT22;2277;51.626;7.516;2022-07-22T14:52:29;26.50;99.90
4530;DHT22;2277;51.626;7.516;2022-07-22T14:54:55;26.50;99.90
4530;DHT22;2277;51.626;7.516;2022-07-22T14:57:20;26.50;99.90
4530;DHT22;2277;51.626;7.516;2022-07-22T14:59:46;26.50;99.90
4530;DHT22;2277;51.626;7.516;2022-07-22T15:02:11;26.40;99.90
4530;DHT22;2277;51.626;7.516;2022-07-22T15:04:37;26.40;99.90
4530;DHT22;2277;51.626;7.516;2022-07-22T15:07:02;26.30;99.90
4530;DHT22;2277;51.626;7.516;2022-07-22T15:09:28;26.20;99.90
4530;DHT22;2277;51.626;7.516;2022-07-22T15:11:54;26.20;99.90
4530;DHT22;2277;51.626;7.516;2022-07-22T15:14:20;26.00;99.90
4530;DHT22;2277;51.626;7.516;2022-07-22T15:16:46;26.00;99.90
4530;DHT22;2277;51.626;7.516;2022-07-22T15:19:11;26.00;99.90
4530;DHT22;2277;51.626;7.516;2022-07-22T15:21:38;25.90;99.90
4530;DHT22;2277;51.626;7.516;2022-07-22T15:24:04;25.90;99.90
4530;DHT22;2277;51.626;7.516;2022-07-22T15:26:31;25.90;99.90
4530;DHT22;2277;51.626;7.516;2022-07-22T15:28:56;25.90;99.90
4530;DHT22;2277;51.626;7.516;2022-07-22T15:31:22;25.90;99.90
4530;DHT22;2277;51.626;7.516;2022-07-22T15:33:48;26.00;99.90
4530;DHT22;2277;51.626;7.516;2022-07-22T15:36:15;26.00;99.90
4530;DHT22;2277;51.626;7.516;2022-07-22T15:38:40;26.00;99.90
4530;DHT22;2277;51.626;7.516;2022-07-22T15:41:07;26.00;99.90
4530;DHT22;2277;51.626;7.516;2022-07-22T15:43:34;25.90;99.90
4530;DHT22;2277;51.626;7.516;2022-07-22T15:46:00;25.90;99.90
4530;DHT22;2277;51.626;7.516;2022-07-22T15:48:26;25.90;99.90
4530;DHT22;2277;51.626;7.516;2022-07-22T15:50:52;25.90;99.90
4530;DHT22;2277;51.626;7.516;2022-07-22T15:53:18;25.90;99.90
4530;DHT22;2277;51.626;7.516;2022-07-22T15:55:44;25.90;99.90
4530;DHT22;2277;51.626;7.516;2022-07-22T15:58:10;26.00;99.90
4530;DHT22;2277;51.626;7.516;2022-07-22T16:00:54;25.90;99.90
4530;DHT22;2277;51.626;7.516;2022-07-22T16:03:20;25.90;99.90
4530;DHT22;2277;51.626;7.516;2022-07-22T16:05:46;25.90;99.90
4530;DHT22;2277;51.626;7.516;2022-07-22T16:08:12;25.80;99.90
4530;DHT22;2277;51.626;7.516;2022-07-22T16:10:37;25.80;99.90
4530;DHT22;2277;51.626;7.516;2022-07-22T16:13:03;25.80;99.90
4530;DHT22;2277;51.626;7.516;2022-07-22T16:15:29;25.70;99.90
4530;DHT22;2277;51.626;7.516;2022-07-22T16:17:54;25.80;99.90
4530;DHT22;2277;51.626;7.516;2022-07-22T16:20:20;25.80;99.90
4530;DHT22;2277;51.626;7.516;2022-07-22T16:22:47;25.70;99.90